createdAt,value
2023-01-13T00:00:16.625Z,63.98
2023-01-13T00:02:43.910Z,63.65
2023-01-13T00:05:11.444Z,63.52
2023-01-13T00:07:40.301Z,63.14
2023-01-13T00:10:10.036Z,63.41
2023-01-13T00:12:43.685Z,63.15
2023-01-13T00:15:11.729Z,64.22
2023-01-13T00:17:39.157Z,63.46
2023-01-13T00:20:07.307Z,63.56
2023-01-13T00:22:35.509Z,63.50
2023-01-13T00:25:04.610Z,63.94
2023-01-13T00:27:31.995Z,63.63
2023-01-13T00:29:59.584Z,63.32
2023-01-13T00:32:27.312Z,63.51
2023-01-13T00:34:54.617Z,63.92
2023-01-13T00:37:21.948Z,64.32
2023-01-13T00:39:49.043Z,64.14
2023-01-13T00:42:38.952Z,64.45
2023-01-13T00:45:06.475Z,64.49
2023-01-13T00:47:33.524Z,64.78
2023-01-13T00:50:00.563Z,64.56
2023-01-13T00:52:27.575Z,64.49
2023-01-13T00:54:54.507Z,63.83
2023-01-13T00:57:21.433Z,64.65
2023-01-13T00:59:49.622Z,64.73
2023-01-13T01:02:16.829Z,64.45
2023-01-13T01:04:43.886Z,64.59
2023-01-13T01:07:10.866Z,64.99
2023-01-13T01:09:39.571Z,64.39
2023-01-13T01:12:07.055Z,64.77
2023-01-13T01:14:34.080Z,64.60
2023-01-13T01:17:01.095Z,64.51
2023-01-13T01:19:28.142Z,64.65
2023-01-13T01:21:55.140Z,64.54
2023-01-13T01:24:22.204Z,64.92
2023-01-13T01:26:49.180Z,64.44
2023-01-13T01:29:17.313Z,64.83
2023-01-13T01:31:44.839Z,64.86
2023-01-13T01:34:11.883Z,65.08
2023-01-13T01:36:39.527Z,64.95
2023-01-13T01:39:06.989Z,64.31
2023-01-13T01:41:36.025Z,64.63
2023-01-13T01:44:43.472Z,64.44
2023-01-13T01:47:15.531Z,64.30
2023-01-13T01:49:44.353Z,64.34
2023-01-13T01:52:46.680Z,64.16
2023-01-13T01:55:19.947Z,64.11
2023-01-13T01:58:13.109Z,64.27
2023-01-13T02:00:40.152Z,64.67
2023-01-13T02:03:08.810Z,64.57
2023-01-13T02:05:35.989Z,64.23
2023-01-13T02:08:04.065Z,63.99
2023-01-13T02:10:32.325Z,64.19
2023-01-13T02:13:05.271Z,64.72
2023-01-13T02:15:42.410Z,64.90
2023-01-13T02:18:18.316Z,64.94
2023-01-13T02:21:13.401Z,64.68
2023-01-13T02:24:22.014Z,64.57
2023-01-13T02:26:57.760Z,65.23
2023-01-13T02:30:15.450Z,64.51
2023-01-13T02:32:59.524Z,64.50
2023-01-13T02:35:56.536Z,65.83
2023-01-13T02:38:31.729Z,64.89
2023-01-13T02:41:25.214Z,65.01
2023-01-13T02:44:10.671Z,64.91
2023-01-13T02:46:53.861Z,64.79
2023-01-13T02:49:39.395Z,64.51
2023-01-13T02:52:22.374Z,64.49
2023-01-13T02:54:55.401Z,64.44
2023-01-13T02:57:24.065Z,64.85
2023-01-13T02:59:54.390Z,65.10
2023-01-13T03:02:23.233Z,64.90
2023-01-13T03:04:50.183Z,64.71
2023-01-13T03:07:22.993Z,64.58
2023-01-13T03:10:16.623Z,64.65
2023-01-13T03:12:52.105Z,64.73
2023-01-13T03:15:40.462Z,65.07
2023-01-13T03:18:18.748Z,65.24
2023-01-13T03:21:20.066Z,64.95
2023-01-13T03:24:33.831Z,65.23
2023-01-13T03:27:14.892Z,65.13
2023-01-13T03:29:49.897Z,65.31
2023-01-13T03:32:37.373Z,65.00
2023-01-13T03:35:23.344Z,64.76
2023-01-13T03:38:25.418Z,64.88
2023-01-13T03:41:01.439Z,64.44
2023-01-13T03:43:53.666Z,64.62
2023-01-13T03:46:32.758Z,64.90
2023-01-13T03:49:03.182Z,64.98
2023-01-13T03:51:33.993Z,64.84
2023-01-13T03:54:05.217Z,64.52
2023-01-13T03:56:53.843Z,64.91
2023-01-13T03:59:25.829Z,64.57
2023-01-13T04:02:01.712Z,64.66
2023-01-13T04:04:44.094Z,65.29
2023-01-13T04:07:29.271Z,64.42
2023-01-13T04:10:00.282Z,65.10
2023-01-13T04:12:52.250Z,64.43
2023-01-13T04:15:22.412Z,64.47
2023-01-13T04:17:50.769Z,64.82
2023-01-13T04:20:18.194Z,64.46
2023-01-13T04:22:45.151Z,64.60
2023-01-13T04:25:12.617Z,64.70
2023-01-13T04:27:40.319Z,64.75
2023-01-13T04:30:07.974Z,64.77
2023-01-13T04:32:34.921Z,64.66
2023-01-13T04:35:01.968Z,64.36
2023-01-13T04:37:30.724Z,64.64
2023-01-13T04:39:58.485Z,64.49
2023-01-13T04:42:25.464Z,64.79
2023-01-13T04:44:52.502Z,64.94
2023-01-13T04:47:19.499Z,64.25
2023-01-13T04:49:46.439Z,64.37
2023-01-13T04:52:13.506Z,64.33
2023-01-13T04:54:40.603Z,64.01
2023-01-13T04:57:07.592Z,64.04
2023-01-13T04:59:34.759Z,64.06
2023-01-13T05:02:01.907Z,64.13
2023-01-13T05:04:28.949Z,64.51
2023-01-13T05:06:55.934Z,63.76
2023-01-13T05:09:22.857Z,63.68
2023-01-13T05:12:08.301Z,63.48
2023-01-13T05:14:54.061Z,63.91
2023-01-13T05:17:24.646Z,63.71
2023-01-13T05:19:51.670Z,63.44
2023-01-13T05:22:37.260Z,63.78
2023-01-13T05:25:23.100Z,63.50
2023-01-13T05:27:55.566Z,63.63
2023-01-13T05:30:25.100Z,63.57
2023-01-13T05:32:52.137Z,63.74
2023-01-13T05:35:19.557Z,63.67
2023-01-13T05:37:47.406Z,63.12
2023-01-13T05:40:35.195Z,63.61
2023-01-13T05:43:20.202Z,63.57
2023-01-13T05:45:57.661Z,63.32
2023-01-13T05:48:36.847Z,63.36
2023-01-13T05:51:06.063Z,63.36
2023-01-13T05:53:33.407Z,63.30
2023-01-13T05:56:00.763Z,63.28
2023-01-13T05:58:28.141Z,63.63
2023-01-13T06:01:00.992Z,63.69
2023-01-13T06:03:28.023Z,63.27
2023-01-13T06:05:59.349Z,63.56
2023-01-13T06:08:26.483Z,63.85
2023-01-13T06:10:53.612Z,63.84
2023-01-13T06:13:20.657Z,63.65
2023-01-13T06:15:47.713Z,63.51
2023-01-13T06:18:14.777Z,63.13
2023-01-13T06:20:41.775Z,63.54
2023-01-13T06:23:11.001Z,63.38
2023-01-13T06:25:53.146Z,63.36
2023-01-13T06:28:20.302Z,63.15
2023-01-13T06:30:52.745Z,63.17
2023-01-13T06:33:24.189Z,62.97
2023-01-13T06:35:56.388Z,63.25
2023-01-13T06:38:26.960Z,63.30
2023-01-13T06:40:54.892Z,63.42
2023-01-13T06:43:22.236Z,63.22
2023-01-13T06:45:54.934Z,63.07
2023-01-13T06:48:28.422Z,63.01
2023-01-13T06:50:55.637Z,62.82
2023-01-13T06:53:22.637Z,63.05
2023-01-13T06:55:49.611Z,63.51
2023-01-13T06:58:16.758Z,63.46
2023-01-13T07:00:43.855Z,62.80
2023-01-13T07:03:16.563Z,63.44
2023-01-13T07:05:50.701Z,63.21
2023-01-13T07:08:17.668Z,63.14
2023-01-13T07:10:44.699Z,62.86
2023-01-13T07:13:30.212Z,62.93
2023-01-13T07:15:59.319Z,63.56
2023-01-13T07:18:28.683Z,63.29
2023-01-13T07:20:57.703Z,63.54
2023-01-13T07:23:27.228Z,63.90
2023-01-13T07:25:58.613Z,63.80
2023-01-13T07:28:26.304Z,63.62
2023-01-13T07:30:53.337Z,63.73
2023-01-13T07:33:20.564Z,63.58
2023-01-13T07:35:48.599Z,63.01
2023-01-13T07:38:16.078Z,63.35
2023-01-13T07:40:43.045Z,62.92
2023-01-13T07:43:31.651Z,63.00
2023-01-13T07:46:00.915Z,62.72
2023-01-13T07:48:28.307Z,62.65
2023-01-13T07:50:56.087Z,62.83
2023-01-13T07:53:25.226Z,62.77
2023-01-13T07:55:56.974Z,62.88
2023-01-13T07:58:25.007Z,63.13
2023-01-13T08:00:52.681Z,63.52
2023-01-13T08:03:20.020Z,63.28
2023-01-13T08:05:47.587Z,62.97
2023-01-13T08:08:15.029Z,63.20
2023-01-13T08:10:42.403Z,63.02
2023-01-13T08:13:21.191Z,62.77
2023-01-13T08:15:53.793Z,62.71
2023-01-13T08:18:22.513Z,62.87
2023-01-13T08:20:52.582Z,62.67
2023-01-13T08:23:20.540Z,62.67
2023-01-13T08:25:47.974Z,62.84
2023-01-13T08:28:16.647Z,62.92
2023-01-13T08:30:43.883Z,62.45
2023-01-13T08:33:12.254Z,62.49
2023-01-13T08:35:41.174Z,62.29
2023-01-13T08:38:08.434Z,62.06
2023-01-13T08:40:35.572Z,62.44
2023-01-13T08:43:03.121Z,62.96
2023-01-13T08:45:30.172Z,62.50
2023-01-13T08:47:57.395Z,62.62
2023-01-13T08:50:24.376Z,62.47
2023-01-13T08:52:51.384Z,62.33
2023-01-13T08:55:18.421Z,62.43
2023-01-13T08:57:45.606Z,62.82
2023-01-13T09:00:14.036Z,62.33
2023-01-13T09:02:41.103Z,62.28
2023-01-13T09:05:09.221Z,62.40
2023-01-13T09:07:38.123Z,62.52
2023-01-13T09:10:06.860Z,62.16
2023-01-13T09:12:52.413Z,62.49
2023-01-13T09:15:19.523Z,62.49
2023-01-13T09:17:48.005Z,62.28
2023-01-13T09:20:15.044Z,62.39
2023-01-13T09:22:42.178Z,62.36
2023-01-13T09:25:10.014Z,62.30
2023-01-13T09:27:37.078Z,62.29
2023-01-13T09:30:05.215Z,62.55
2023-01-13T09:32:32.925Z,62.46
2023-01-13T09:35:00.180Z,62.17
2023-01-13T09:37:36.682Z,62.76
2023-01-13T09:40:15.503Z,62.27
2023-01-13T09:43:11.119Z,62.45
2023-01-13T09:45:50.445Z,62.66
2023-01-13T09:48:52.089Z,62.86
2023-01-13T09:51:28.083Z,62.27
2023-01-13T09:54:00.789Z,62.43
2023-01-13T09:56:27.912Z,62.16
2023-01-13T09:58:54.958Z,62.04
2023-01-13T10:01:46.129Z,62.00
2023-01-13T10:04:15.445Z,62.35
2023-01-13T10:06:47.663Z,62.54
2023-01-13T10:09:25.943Z,62.54
2023-01-13T10:12:15.024Z,62.38
2023-01-13T10:14:48.346Z,62.59
2023-01-13T10:17:39.907Z,62.74
2023-01-13T10:20:22.680Z,62.97
2023-01-13T10:23:04.698Z,62.92
2023-01-13T10:25:39.506Z,62.99
2023-01-13T10:28:12.724Z,62.72
2023-01-13T10:30:43.557Z,62.73
2023-01-13T10:33:20.675Z,62.51
2023-01-13T10:35:56.666Z,62.47
2023-01-13T10:38:35.748Z,62.64
2023-01-13T10:41:06.119Z,62.70
2023-01-13T10:43:33.196Z,62.61
2023-01-13T10:46:02.904Z,62.75
2023-01-13T10:48:57.075Z,62.55
2023-01-13T10:51:29.106Z,62.83
2023-01-13T10:54:20.338Z,62.89
2023-01-13T10:56:47.464Z,62.82
2023-01-13T10:59:27.510Z,62.56
2023-01-13T11:02:25.229Z,62.56
2023-01-13T11:04:55.277Z,62.77
2023-01-13T11:07:26.821Z,62.70
2023-01-13T11:10:16.515Z,62.62
2023-01-13T11:13:01.548Z,62.73
2023-01-13T11:15:46.434Z,62.68
2023-01-13T11:18:37.112Z,63.25
2023-01-13T11:21:12.127Z,62.54
2023-01-13T11:23:49.028Z,62.95
2023-01-13T11:26:24.033Z,62.63
2023-01-13T11:29:01.331Z,62.38
2023-01-13T11:31:36.275Z,62.61
2023-01-13T11:34:21.258Z,62.21
2023-01-13T11:36:52.350Z,63.02
2023-01-13T11:39:40.754Z,62.92
2023-01-13T11:42:24.262Z,62.35
2023-01-13T11:44:56.120Z,62.91
2023-01-13T11:47:26.237Z,62.84
2023-01-13T11:49:53.416Z,63.50
2023-01-13T11:52:41.661Z,63.59
2023-01-13T11:55:28.612Z,63.00
2023-01-13T11:58:01.493Z,62.76
2023-01-13T12:00:33.587Z,63.47
2023-01-13T12:03:07.973Z,63.27
2023-01-13T12:05:41.489Z,63.03
2023-01-13T12:08:26.533Z,62.89
2023-01-13T12:11:56.895Z,63.58
2023-01-13T12:15:03.142Z,63.34
2023-01-13T12:18:15.815Z,62.94
2023-01-13T12:21:00.124Z,63.38
2023-01-13T12:23:30.132Z,63.30
2023-01-13T12:26:05.950Z,63.10
2023-01-13T12:28:40.072Z,62.71
2023-01-13T12:31:09.553Z,63.21
2023-01-13T12:34:27.533Z,63.86
2023-01-13T12:37:09.473Z,63.65
2023-01-13T12:40:17.607Z,63.16
2023-01-13T12:43:17.265Z,63.42
2023-01-13T12:45:44.294Z,63.50
2023-01-13T12:48:45.019Z,63.58
2023-01-13T12:51:42.122Z,63.52
2023-01-13T12:54:30.698Z,62.94
2023-01-13T12:56:59.245Z,63.35
2023-01-13T12:59:26.218Z,63.15
2023-01-13T13:02:11.591Z,63.41
2023-01-13T13:04:53.428Z,63.99
2023-01-13T13:07:43.791Z,64.08
2023-01-13T13:10:16.515Z,63.86
2023-01-13T13:13:01.841Z,63.79
2023-01-13T13:15:36.291Z,63.48
2023-01-13T13:18:24.758Z,64.87
2023-01-13T13:21:11.002Z,64.61
2023-01-13T13:23:48.901Z,64.34
2023-01-13T13:26:20.341Z,64.43
2023-01-13T13:29:02.292Z,63.88
2023-01-13T13:31:37.995Z,64.01
2023-01-13T13:34:32.743Z,64.68
2023-01-13T13:37:12.190Z,64.81
2023-01-13T13:40:01.118Z,64.71
2023-01-13T13:42:57.218Z,64.56
2023-01-13T13:45:45.222Z,64.76
2023-01-13T13:48:19.266Z,64.12
2023-01-13T13:50:55.418Z,64.57
2023-01-13T13:53:24.428Z,63.99
2023-01-13T13:55:54.804Z,63.98
2023-01-13T13:58:23.041Z,63.86
2023-01-13T14:00:50.033Z,64.08
2023-01-13T14:03:31.543Z,64.38
2023-01-13T14:06:00.957Z,64.78
2023-01-13T14:08:30.974Z,65.10
2023-01-13T14:10:57.986Z,65.02
2023-01-13T14:13:31.239Z,64.51
2023-01-13T14:16:04.232Z,64.67
2023-01-13T14:18:34.462Z,64.57
2023-01-13T14:21:19.849Z,65.16
2023-01-13T14:23:56.919Z,64.42
2023-01-13T14:26:25.818Z,65.83
2023-01-13T14:28:53.680Z,65.12
2023-01-13T14:31:21.131Z,65.63
2023-01-13T14:33:51.781Z,65.14
2023-01-13T14:36:31.533Z,65.58
2023-01-13T14:39:04.575Z,65.51
2023-01-13T14:41:36.102Z,64.43
2023-01-13T14:44:29.334Z,65.03
2023-01-13T14:46:59.054Z,64.71
2023-01-13T14:49:36.181Z,65.07
2023-01-13T14:52:12.229Z,64.84
2023-01-13T14:54:58.565Z,64.39
2023-01-13T14:57:33.153Z,64.75
2023-01-13T15:00:15.377Z,64.95
2023-01-13T15:02:57.518Z,65.33
2023-01-13T15:05:27.298Z,64.82
2023-01-13T15:08:00.918Z,64.78
2023-01-13T15:10:31.461Z,65.20
2023-01-13T15:13:01.167Z,65.04
2023-01-13T15:15:33.932Z,64.91
2023-01-13T15:18:17.067Z,65.63
2023-01-13T15:20:44.997Z,65.39
2023-01-13T15:23:12.354Z,66.00
2023-01-13T15:25:41.808Z,65.72
2023-01-13T15:28:20.173Z,66.25
2023-01-13T15:30:48.946Z,66.00
2023-01-13T15:33:16.999Z,65.96
2023-01-13T15:35:46.771Z,65.30
2023-01-13T15:38:16.760Z,65.18
2023-01-13T15:40:43.813Z,65.45
2023-01-13T15:43:39.627Z,65.44
2023-01-13T15:46:34.575Z,65.22
2023-01-13T15:49:21.609Z,65.06
2023-01-13T15:51:49.901Z,65.46
2023-01-13T15:54:17.231Z,65.23
2023-01-13T15:56:44.192Z,65.55
2023-01-13T15:59:18.062Z,65.71
2023-01-13T16:01:46.103Z,65.69
2023-01-13T16:04:13.153Z,66.24
2023-01-13T16:06:40.253Z,66.25
2023-01-13T16:09:07.578Z,65.73
2023-01-13T16:11:34.674Z,65.64
2023-01-13T16:14:01.671Z,66.01
2023-01-13T16:16:29.128Z,66.27
2023-01-13T16:18:56.673Z,65.71
2023-01-13T16:21:24.185Z,65.53
2023-01-13T16:23:51.989Z,65.56
2023-01-13T16:26:22.590Z,65.49
2023-01-13T16:28:51.325Z,66.41
2023-01-13T16:31:33.062Z,65.96
2023-01-13T16:34:02.295Z,66.21
2023-01-13T16:36:32.040Z,65.40
2023-01-13T16:38:59.210Z,66.09
2023-01-13T16:41:26.504Z,65.31
2023-01-13T16:43:54.212Z,66.24
2023-01-13T16:46:21.294Z,66.47
2023-01-13T16:48:49.607Z,66.22
2023-01-13T16:51:16.682Z,67.03
2023-01-13T16:53:43.807Z,67.15
2023-01-13T16:56:35.363Z,67.37
2023-01-13T16:59:08.820Z,66.79
2023-01-13T17:01:39.497Z,66.50
2023-01-13T17:04:07.210Z,67.24
2023-01-13T17:06:36.961Z,66.99
2023-01-13T17:09:06.610Z,67.01
2023-01-13T17:11:34.143Z,66.79
2023-01-13T17:14:01.169Z,66.75
2023-01-13T17:16:45.965Z,66.39
2023-01-13T17:19:13.526Z,66.02
2023-01-13T17:21:40.765Z,66.89
2023-01-13T17:24:09.666Z,66.82
2023-01-13T17:26:40.203Z,67.51
2023-01-13T17:29:11.375Z,66.74
2023-01-13T17:31:38.869Z,66.95
2023-01-13T17:34:06.219Z,66.98
2023-01-13T17:36:33.607Z,67.10
2023-01-13T17:39:00.571Z,66.75
2023-01-13T17:41:27.880Z,66.95
2023-01-13T17:43:55.089Z,67.18
2023-01-13T17:46:23.235Z,67.02
2023-01-13T17:48:52.741Z,66.49
2023-01-13T17:51:22.664Z,66.52
2023-01-13T17:53:49.797Z,66.56
2023-01-13T17:56:17.856Z,67.28
2023-01-13T17:58:46.865Z,66.85
2023-01-13T18:01:17.160Z,66.98
2023-01-13T18:03:44.597Z,67.69
2023-01-13T18:06:20.884Z,67.71
2023-01-13T18:08:48.249Z,67.14
2023-01-13T18:11:20.277Z,67.04
2023-01-13T18:13:49.902Z,66.44
2023-01-13T18:16:19.172Z,67.20
2023-01-13T18:18:48.148Z,67.62
2023-01-13T18:21:41.424Z,67.67
2023-01-13T18:24:34.723Z,67.04
2023-01-13T18:27:21.241Z,67.08
2023-01-13T18:29:53.652Z,66.29
2023-01-13T18:32:22.436Z,66.48
2023-01-13T18:34:53.978Z,66.99
2023-01-13T18:37:26.057Z,65.99
2023-01-13T18:39:53.140Z,66.31
2023-01-13T18:42:38.976Z,66.75
2023-01-13T18:45:06.351Z,66.35
2023-01-13T18:47:33.795Z,66.38
2023-01-13T18:50:00.915Z,66.67
2023-01-13T18:52:27.964Z,66.77
2023-01-13T18:54:54.966Z,66.54
2023-01-13T18:57:22.387Z,66.48
2023-01-13T18:59:49.441Z,66.52
2023-01-13T19:02:19.083Z,66.72
2023-01-13T19:04:46.730Z,66.60
2023-01-13T19:07:22.077Z,66.26
2023-01-13T19:09:52.028Z,66.42
2023-01-13T19:12:28.067Z,66.23
2023-01-13T19:14:55.733Z,66.52
2023-01-13T19:17:24.698Z,66.43
2023-01-13T19:19:54.229Z,66.24
2023-01-13T19:22:40.652Z,66.20
2023-01-13T19:25:07.952Z,66.27
2023-01-13T19:27:34.956Z,66.21
2023-01-13T19:30:02.941Z,66.35
2023-01-13T19:32:33.650Z,66.56
2023-01-13T19:35:01.155Z,66.03
2023-01-13T19:37:30.554Z,65.99
2023-01-13T19:39:59.272Z,66.30
2023-01-13T19:42:44.887Z,66.09
2023-01-13T19:45:27.795Z,66.53
2023-01-13T19:47:56.029Z,66.17
2023-01-13T19:50:23.837Z,65.64
2023-01-13T19:52:50.794Z,66.45
2023-01-13T19:55:19.784Z,66.21
2023-01-13T19:57:47.138Z,66.86
2023-01-13T20:00:20.373Z,66.33
2023-01-13T20:02:49.681Z,66.43
2023-01-13T20:05:21.330Z,66.02
2023-01-13T20:07:50.121Z,65.83
2023-01-13T20:10:19.064Z,67.18
2023-01-13T20:12:46.075Z,66.75
2023-01-13T20:15:13.064Z,66.32
2023-01-13T20:17:41.651Z,66.66
2023-01-13T20:20:10.723Z,66.65
2023-01-13T20:22:39.838Z,66.26
2023-01-13T20:25:08.282Z,66.16
2023-01-13T20:27:35.762Z,65.99
2023-01-13T20:30:02.905Z,66.37
2023-01-13T20:32:31.117Z,66.22
2023-01-13T20:34:58.107Z,66.17
2023-01-13T20:37:25.267Z,66.94
2023-01-13T20:39:52.322Z,66.15
2023-01-13T20:42:38.098Z,66.93
2023-01-13T20:45:06.032Z,66.45
2023-01-13T20:47:33.068Z,65.88
2023-01-13T20:50:00.399Z,66.13
2023-01-13T20:52:28.667Z,66.37
2023-01-13T20:54:55.786Z,66.12
2023-01-13T20:57:22.806Z,65.61
2023-01-13T20:59:49.884Z,66.38
2023-01-13T21:02:17.758Z,66.67
2023-01-13T21:04:44.809Z,66.49
2023-01-13T21:07:12.112Z,66.12
2023-01-13T21:09:39.201Z,66.80
2023-01-13T21:12:33.979Z,66.70
2023-01-13T21:15:17.333Z,66.08
2023-01-13T21:18:04.511Z,66.66
2023-01-13T21:20:33.683Z,66.11
2023-01-13T21:23:02.340Z,65.60
2023-01-13T21:25:30.520Z,66.02
2023-01-13T21:28:17.553Z,65.92
2023-01-13T21:30:46.421Z,66.55
2023-01-13T21:33:14.600Z,66.42
2023-01-13T21:35:42.406Z,66.88
2023-01-13T21:38:11.490Z,66.72
2023-01-13T21:40:38.525Z,66.25
2023-01-13T21:43:23.958Z,66.23
2023-01-13T21:46:09.573Z,66.43
2023-01-13T21:48:36.668Z,66.24
2023-01-13T21:51:03.806Z,66.45
2023-01-13T21:53:32.223Z,65.94
2023-01-13T21:56:01.019Z,67.04
2023-01-13T21:58:28.004Z,66.79
2023-01-13T22:00:55.184Z,66.71
2023-01-13T22:03:22.333Z,66.33
2023-01-13T22:05:54.884Z,66.95
2023-01-13T22:08:22.121Z,66.89
2023-01-13T22:10:57.801Z,66.85
2023-01-13T22:13:44.201Z,66.93
2023-01-13T22:16:11.581Z,66.76
2023-01-13T22:18:38.615Z,66.20
2023-01-13T22:21:05.839Z,66.77
2023-01-13T22:23:32.851Z,66.57
2023-01-13T22:26:04.420Z,66.46
2023-01-13T22:28:40.360Z,67.41
2023-01-13T22:31:12.372Z,67.43
2023-01-13T22:33:40.227Z,67.25
2023-01-13T22:36:08.520Z,66.57
2023-01-13T22:38:35.914Z,66.93
2023-01-13T22:41:06.321Z,67.04
2023-01-13T22:43:33.793Z,66.69
2023-01-13T22:46:03.789Z,66.77
2023-01-13T22:48:30.869Z,66.89
2023-01-13T22:51:07.305Z,66.74
2023-01-13T22:53:35.384Z,67.37
2023-01-13T22:56:03.097Z,66.91
2023-01-13T22:58:30.273Z,67.24
2023-01-13T23:01:08.009Z,67.22
2023-01-13T23:03:35.077Z,66.99
2023-01-13T23:06:02.290Z,66.93
2023-01-13T23:08:29.293Z,67.61
2023-01-13T23:11:09.240Z,67.27
2023-01-13T23:13:39.638Z,67.24
2023-01-13T23:16:09.619Z,66.64
2023-01-13T23:18:37.050Z,67.59
2023-01-13T23:21:10.155Z,66.98
2023-01-13T23:23:37.830Z,67.42
2023-01-13T23:26:06.665Z,67.26
2023-01-13T23:28:35.069Z,66.92
2023-01-13T23:31:07.063Z,67.88
2023-01-13T23:33:35.254Z,66.69
2023-01-13T23:36:07.049Z,67.62
2023-01-13T23:38:34.280Z,67.70
2023-01-13T23:41:01.311Z,66.77
2023-01-13T23:43:28.274Z,67.03
2023-01-13T23:46:06.923Z,67.54
2023-01-13T23:48:34.629Z,67.38
2023-01-13T23:51:04.674Z,66.99
2023-01-13T23:53:35.284Z,66.50
2023-01-13T23:56:04.299Z,66.83
2023-01-13T23:58:31.840Z,66.89
